createdAt,value
2022-11-29T00:03:58.508Z,20.67
2022-11-29T00:12:16.189Z,22.83
2022-11-29T00:20:24.168Z,20.77
2022-11-29T00:28:29.546Z,19.10
2022-11-29T00:36:38.356Z,23.25
2022-11-29T00:44:43.840Z,29.42
2022-11-29T00:52:51.958Z,23.42
2022-11-29T01:00:57.844Z,24.95
2022-11-29T01:09:06.030Z,26.45
2022-11-29T01:17:11.573Z,27.42
2022-11-29T01:25:19.803Z,27.50
2022-11-29T01:33:25.705Z,32.97
2022-11-29T01:41:35.084Z,29.85
2022-11-29T01:49:43.118Z,29.42
2022-11-29T01:57:51.152Z,33.92
2022-11-29T02:05:57.906Z,29.52
2022-11-29T02:14:21.098Z,30.55
2022-11-29T02:22:32.663Z,27.40
2022-11-29T02:31:06.717Z,33.42
2022-11-29T02:39:55.051Z,31.75
2022-11-29T02:48:21.235Z,34.08
2022-11-29T02:56:37.710Z,31.25
2022-11-29T03:04:51.698Z,28.25
2022-11-29T03:13:01.547Z,34.15
2022-11-29T03:21:21.559Z,28.15
2022-11-29T03:29:35.686Z,35.40
2022-11-29T03:37:48.546Z,30.55
2022-11-29T03:46:01.974Z,32.27
2022-11-29T04:02:50.007Z,28.65
2022-11-29T04:11:25.988Z,29.45
2022-11-29T04:20:00.548Z,33.50
2022-11-29T04:28:33.551Z,31.70
2022-11-29T04:37:12.511Z,19.07
2022-11-29T04:46:05.552Z,27.05
2022-11-29T04:54:20.311Z,27.97
2022-11-29T05:02:36.351Z,30.08
2022-11-29T05:10:48.781Z,28.52
2022-11-29T05:19:21.140Z,27.98
2022-11-29T05:27:39.069Z,28.48
2022-11-29T05:35:54.944Z,29.67
2022-11-29T05:44:10.507Z,31.48
2022-11-29T05:52:28.352Z,31.52
2022-11-29T06:00:43.947Z,31.92
2022-11-29T06:09:09.263Z,30.98
2022-11-29T06:17:52.617Z,32.80
2022-11-29T06:26:13.940Z,30.70
2022-11-29T06:34:30.658Z,30.45
2022-11-29T06:42:39.637Z,30.83
2022-11-29T06:50:56.433Z,28.67
2022-11-29T06:59:10.415Z,29.15
2022-11-29T07:07:21.053Z,31.58
2022-11-29T07:15:30.479Z,49.15
2022-11-29T07:23:39.405Z,43.28
2022-11-29T07:31:57.014Z,45.92
2022-11-29T07:40:08.808Z,37.55
2022-11-29T07:48:19.290Z,42.03
2022-11-29T07:56:24.556Z,42.60
2022-11-29T08:04:32.838Z,47.33
2022-11-29T08:12:38.276Z,35.22
2022-11-29T08:20:46.732Z,34.38
2022-11-29T08:28:55.120Z,30.40
2022-11-29T08:37:05.140Z,30.88
2022-11-29T08:45:17.601Z,35.83
2022-11-29T08:53:40.329Z,44.58
2022-11-29T09:01:45.788Z,41.72
2022-11-29T09:09:53.795Z,39.92
2022-11-29T09:17:59.195Z,34.75
2022-11-29T09:26:08.697Z,42.53
2022-11-29T09:34:16.007Z,41.60
2022-11-29T09:42:43.468Z,33.15
2022-11-29T09:50:51.579Z,38.65
2022-11-29T09:59:02.679Z,43.63
2022-11-29T10:07:14.137Z,44.58
2022-11-29T10:15:25.113Z,34.65
2022-11-29T10:23:36.109Z,36.22
2022-11-29T10:31:49.568Z,30.23
2022-11-29T10:40:00.160Z,29.05
2022-11-29T10:48:12.906Z,36.97
2022-11-29T10:56:27.663Z,32.20
2022-11-29T11:04:39.953Z,18.67
2022-11-29T11:13:05.721Z,19.70
2022-11-29T11:21:17.518Z,19.63
2022-11-29T11:29:25.805Z,18.30
2022-11-29T11:37:35.879Z,16.27
2022-11-29T11:45:41.312Z,21.63
2022-11-29T11:53:55.499Z,20.00
2022-11-29T12:02:01.230Z,16.58
2022-11-29T12:10:20.267Z,22.63
2022-11-29T12:18:33.679Z,17.15
2022-11-29T12:27:01.062Z,18.58
2022-11-29T12:35:35.272Z,17.55
2022-11-29T12:43:56.721Z,21.40
2022-11-29T12:52:12.329Z,17.25
2022-11-29T13:00:22.772Z,26.25
2022-11-29T13:08:55.986Z,18.90
2022-11-29T13:17:06.771Z,19.40
2022-11-29T13:25:19.537Z,18.65
2022-11-29T13:33:34.195Z,17.88
2022-11-29T13:41:49.399Z,20.85
2022-11-29T13:50:04.563Z,18.83
2022-11-29T13:58:36.438Z,18.33
2022-11-29T14:06:48.121Z,20.67
2022-11-29T14:14:57.239Z,24.00
2022-11-29T14:23:21.357Z,20.70
2022-11-29T14:31:52.498Z,21.52
2022-11-29T14:40:03.775Z,32.03
2022-11-29T14:48:26.955Z,34.92
2022-11-29T14:56:42.946Z,37.33
2022-11-29T15:04:49.072Z,43.95
2022-11-29T15:12:58.262Z,38.97
2022-11-29T15:21:18.006Z,46.17
2022-11-29T15:29:33.706Z,44.30
2022-11-29T15:37:46.869Z,40.22
2022-11-29T15:45:55.847Z,43.67
2022-11-29T15:54:13.444Z,47.42
2022-11-29T16:02:26.044Z,47.30
2022-11-29T16:10:37.446Z,50.33
2022-11-29T16:18:47.714Z,54.78
2022-11-29T16:26:53.982Z,46.75
2022-11-29T16:35:10.112Z,46.45
2022-11-29T16:43:57.247Z,53.60
2022-11-29T16:52:26.851Z,56.70
2022-11-29T17:00:35.291Z,60.90
2022-11-29T17:08:44.627Z,62.47
2022-11-29T17:16:52.187Z,66.70
2022-11-29T17:25:01.163Z,62.33
2022-11-29T17:33:07.104Z,68.93
2022-11-29T17:41:18.284Z,67.32
2022-11-29T17:49:24.281Z,73.80
2022-11-29T17:57:32.225Z,74.55
2022-11-29T18:05:39.316Z,70.25
2022-11-29T18:13:47.471Z,79.55
2022-11-29T18:21:54.375Z,83.53
2022-11-29T18:30:03.146Z,94.55
2022-11-29T18:38:16.894Z,79.60
2022-11-29T18:46:25.654Z,85.28
2022-11-29T18:54:32.008Z,81.80
2022-11-29T19:02:40.104Z,73.10
2022-11-29T19:10:45.582Z,84.15
2022-11-29T19:18:55.469Z,59.03
2022-11-29T19:27:01.536Z,48.65
2022-11-29T19:35:10.545Z,56.30
2022-11-29T19:43:18.544Z,54.90
2022-11-29T19:51:28.769Z,48.70
2022-11-29T19:59:34.146Z,46.17
2022-11-29T20:07:43.632Z,42.38
2022-11-29T20:15:50.005Z,37.70
2022-11-29T20:24:02.830Z,37.88
2022-11-29T20:32:08.863Z,35.25
2022-11-29T20:40:22.343Z,34.17
2022-11-29T20:48:28.974Z,36.83
2022-11-29T20:56:37.065Z,33.13
2022-11-29T21:04:42.354Z,34.25
2022-11-29T21:12:51.258Z,37.00
2022-11-29T21:21:11.500Z,36.30
2022-11-29T21:29:23.854Z,37.65
2022-11-29T21:37:35.769Z,37.13
2022-11-29T21:45:43.818Z,34.20
2022-11-29T21:53:49.151Z,34.70
2022-11-29T22:01:57.463Z,35.65
2022-11-29T22:10:11.589Z,40.33
2022-11-29T22:18:21.298Z,33.60
2022-11-29T22:26:26.672Z,36.78
2022-11-29T22:34:37.832Z,31.35
2022-11-29T22:42:52.205Z,32.78
2022-11-29T22:51:09.968Z,35.80
2022-11-29T22:59:15.568Z,35.13
2022-11-29T23:07:28.490Z,31.50
2022-11-29T23:15:36.241Z,31.93
2022-11-29T23:23:45.189Z,30.83
2022-11-29T23:31:51.150Z,34.67
2022-11-29T23:39:59.061Z,34.67
2022-11-29T23:48:04.402Z,30.25
2022-11-29T23:56:15.897Z,46.42
